createdAt,value
2019-03-31T00:04:23.574Z,8.40
2019-03-31T00:09:33.410Z,8.20
2019-03-31T00:14:41.204Z,8.10
2019-03-31T00:19:49.193Z,8.10
2019-03-31T00:24:56.991Z,8.10
2019-03-31T00:30:05.124Z,8.10
2019-03-31T00:35:13.900Z,8.10
2019-03-31T00:40:21.716Z,8.10
2019-03-31T00:45:29.453Z,8.00
2019-03-31T00:50:37.297Z,7.90
2019-03-31T00:55:45.086Z,7.90
2019-03-31T01:01:35.810Z,7.80
2019-03-31T01:06:37.256Z,7.80
2019-03-31T01:11:48.288Z,7.70
2019-03-31T01:16:56.661Z,7.70
2019-03-31T01:22:04.990Z,7.60
2019-03-31T01:27:15.587Z,7.50
2019-03-31T01:32:24.423Z,7.30
2019-03-31T01:37:32.832Z,7.30
2019-03-31T01:42:40.677Z,7.20
2019-03-31T01:47:48.660Z,7.20
2019-03-31T01:52:56.680Z,7.10
2019-03-31T01:58:04.829Z,7.10
2019-03-31T02:03:14.049Z,7.00
2019-03-31T02:08:22.028Z,6.70
2019-03-31T02:13:30.408Z,6.70
2019-03-31T02:18:39.141Z,6.60
2019-03-31T02:23:46.862Z,6.40
2019-03-31T02:28:54.729Z,6.40
2019-03-31T02:34:02.498Z,6.20
2019-03-31T02:39:10.452Z,6.10
2019-03-31T02:44:18.194Z,6.10
2019-03-31T02:49:26.012Z,5.90
2019-03-31T02:54:34.168Z,6.00
2019-03-31T02:59:43.199Z,6.20
2019-03-31T03:04:51.978Z,6.30
2019-03-31T03:10:01.424Z,6.30
2019-03-31T03:15:09.555Z,6.20
2019-03-31T03:20:17.787Z,6.10
2019-03-31T03:25:25.578Z,6.00
2019-03-31T03:30:33.395Z,6.00
2019-03-31T03:35:41.347Z,6.00
2019-03-31T03:40:49.558Z,5.80
2019-03-31T03:45:57.404Z,5.80
2019-03-31T03:51:05.686Z,5.90
2019-03-31T03:56:13.838Z,6.00
2019-03-31T04:01:23.563Z,6.10
2019-03-31T04:06:31.572Z,6.20
2019-03-31T04:11:39.463Z,6.30
2019-03-31T04:16:47.364Z,6.40
2019-03-31T04:21:55.420Z,6.40
2019-03-31T04:27:03.433Z,6.40
2019-03-31T04:32:11.311Z,6.50
2019-03-31T04:37:19.269Z,6.40
2019-03-31T04:42:27.141Z,6.40
2019-03-31T04:47:35.039Z,6.20
2019-03-31T04:52:42.962Z,6.30
2019-03-31T04:57:50.942Z,6.30
2019-03-31T05:03:00.290Z,6.30
2019-03-31T05:08:08.201Z,6.30
2019-03-31T05:13:18.142Z,6.20
2019-03-31T05:18:26.887Z,6.20
2019-03-31T05:23:35.580Z,6.40
2019-03-31T05:28:44.316Z,6.50
2019-03-31T05:33:53.698Z,6.60
2019-03-31T05:39:01.849Z,6.70
2019-03-31T05:44:09.687Z,6.80
2019-03-31T05:49:17.475Z,6.80
2019-03-31T05:54:25.283Z,6.90
2019-03-31T05:59:33.452Z,6.90
2019-03-31T06:04:41.227Z,7.00
2019-03-31T06:09:48.935Z,7.00
2019-03-31T06:14:56.686Z,7.00
2019-03-31T06:20:04.747Z,7.20
2019-03-31T06:25:12.588Z,7.50
2019-03-31T06:30:20.506Z,7.80
2019-03-31T06:35:28.219Z,7.90
2019-03-31T06:40:36.088Z,7.50
2019-03-31T06:45:43.746Z,7.40
2019-03-31T06:50:52.447Z,7.30
2019-03-31T06:56:00.211Z,7.40
2019-03-31T07:01:09.358Z,7.40
2019-03-31T07:06:17.286Z,7.50
2019-03-31T07:11:24.991Z,7.50
2019-03-31T07:16:32.789Z,7.70
2019-03-31T07:21:40.897Z,8.00
2019-03-31T07:26:48.570Z,8.40
2019-03-31T07:31:56.339Z,8.50
2019-03-31T07:37:04.053Z,8.20
2019-03-31T07:42:11.940Z,8.20
2019-03-31T07:47:20.018Z,8.50
2019-03-31T07:52:27.900Z,8.70
2019-03-31T07:57:35.751Z,8.80
2019-03-31T08:02:43.456Z,9.00
2019-03-31T08:07:51.150Z,9.00
2019-03-31T08:12:58.915Z,9.10
2019-03-31T08:18:06.931Z,9.30
2019-03-31T08:23:14.672Z,9.60
2019-03-31T08:28:22.761Z,9.90
2019-03-31T08:33:30.436Z,10.00
2019-03-31T08:38:38.163Z,9.80
2019-03-31T08:43:46.094Z,9.80
2019-03-31T08:48:53.966Z,9.60
2019-03-31T08:54:01.651Z,9.90
2019-03-31T08:59:09.611Z,10.30
2019-03-31T09:04:18.577Z,10.30
2019-03-31T09:09:26.371Z,10.40
2019-03-31T09:14:34.188Z,10.20
2019-03-31T09:19:41.992Z,10.20
2019-03-31T09:24:49.655Z,10.20
2019-03-31T09:29:58.370Z,10.60
2019-03-31T09:35:07.910Z,11.10
2019-03-31T09:40:16.602Z,10.90
2019-03-31T09:45:24.301Z,10.90
2019-03-31T09:50:31.965Z,11.30
2019-03-31T09:55:39.679Z,10.80
2019-03-31T10:00:52.677Z,10.40
2019-03-31T10:06:10.669Z,10.40
2019-03-31T10:11:09.847Z,10.60
2019-03-31T10:16:17.623Z,10.40
2019-03-31T10:21:25.286Z,10.30
2019-03-31T10:26:33.021Z,10.30
2019-03-31T10:31:41.079Z,10.20
2019-03-31T10:36:49.996Z,10.20
2019-03-31T10:41:57.868Z,10.80
2019-03-31T10:47:06.688Z,10.90
2019-03-31T10:52:14.507Z,10.90
2019-03-31T10:57:22.448Z,11.20
2019-03-31T11:02:30.191Z,11.60
2019-03-31T11:07:38.115Z,11.70
2019-03-31T11:12:46.216Z,11.50
2019-03-31T11:17:54.081Z,11.60
2019-03-31T11:23:20.728Z,11.60
2019-03-31T11:28:28.511Z,11.80
2019-03-31T11:33:36.523Z,11.90
2019-03-31T11:38:44.466Z,11.90
2019-03-31T11:43:52.383Z,12.00
2019-03-31T11:49:00.303Z,12.60
2019-03-31T11:54:09.260Z,12.90
2019-03-31T11:59:20.691Z,12.30
2019-03-31T12:04:27.363Z,12.80
2019-03-31T12:09:35.123Z,13.10
2019-03-31T12:14:59.599Z,12.90
2019-03-31T12:19:54.407Z,13.30
2019-03-31T12:25:02.134Z,13.30
2019-03-31T12:30:10.089Z,15.40
2019-03-31T12:35:17.816Z,17.10
2019-03-31T12:40:33.428Z,16.50
2019-03-31T12:45:43.157Z,16.60
2019-03-31T12:50:50.688Z,16.90
2019-03-31T12:56:00.345Z,17.10
2019-03-31T13:01:07.815Z,17.90
2019-03-31T13:06:15.495Z,19.60
2019-03-31T13:11:23.262Z,19.60
2019-03-31T13:16:31.014Z,19.20
2019-03-31T13:21:38.720Z,18.40
2019-03-31T13:26:46.373Z,19.40
2019-03-31T13:31:54.659Z,18.80
2019-03-31T13:37:02.366Z,17.80
2019-03-31T13:42:10.147Z,15.70
2019-03-31T13:47:17.809Z,14.70
2019-03-31T13:52:25.574Z,14.50
2019-03-31T13:57:34.120Z,17.00
2019-03-31T14:02:42.304Z,19.40
2019-03-31T14:07:51.082Z,19.80
2019-03-31T14:12:58.739Z,18.90
2019-03-31T14:18:07.654Z,15.40
2019-03-31T14:23:15.775Z,14.60
2019-03-31T14:28:23.708Z,17.40
2019-03-31T14:33:31.773Z,20.00
2019-03-31T14:38:40.700Z,21.60
2019-03-31T14:43:48.601Z,20.40
2019-03-31T14:48:56.799Z,17.30
2019-03-31T14:54:04.591Z,15.20
2019-03-31T14:59:12.554Z,13.00
2019-03-31T15:04:20.370Z,11.70
2019-03-31T15:09:28.396Z,13.90
2019-03-31T15:14:37.446Z,14.80
2019-03-31T15:19:46.203Z,17.50
2019-03-31T15:24:53.960Z,16.40
2019-03-31T15:30:01.814Z,13.30
2019-03-31T15:35:10.931Z,11.70
2019-03-31T15:40:18.627Z,11.30
2019-03-31T15:45:26.387Z,11.10
2019-03-31T15:50:34.478Z,10.60
2019-03-31T15:55:42.199Z,9.50
2019-03-31T16:00:49.986Z,8.90
2019-03-31T16:05:57.776Z,10.20
2019-03-31T16:11:06.261Z,11.30
2019-03-31T16:16:14.310Z,14.20
2019-03-31T16:21:21.610Z,13.70
2019-03-31T16:26:28.771Z,14.80
2019-03-31T16:31:35.898Z,14.20
2019-03-31T16:36:44.256Z,13.20
2019-03-31T16:41:51.475Z,11.10
2019-03-31T16:46:58.684Z,10.30
2019-03-31T16:52:06.231Z,10.90
2019-03-31T16:57:13.450Z,11.00
2019-03-31T17:02:21.310Z,10.60
2019-03-31T17:07:30.492Z,10.00
2019-03-31T17:12:38.616Z,8.80
2019-03-31T17:17:46.382Z,7.80
2019-03-31T17:22:53.536Z,7.20
2019-03-31T17:28:01.045Z,6.80
2019-03-31T17:33:08.468Z,6.50
2019-03-31T17:38:15.656Z,6.10
2019-03-31T17:43:22.767Z,5.80
2019-03-31T17:48:29.943Z,5.60
2019-03-31T17:53:37.065Z,5.50
2019-03-31T17:58:44.238Z,5.40
2019-03-31T18:03:51.385Z,5.30
2019-03-31T18:08:58.431Z,5.10
2019-03-31T18:14:06.913Z,4.90
2019-03-31T18:19:14.427Z,4.60
2019-03-31T18:24:21.510Z,4.50
2019-03-31T18:29:28.667Z,4.40
2019-03-31T18:34:35.769Z,4.40
2019-03-31T18:39:42.956Z,4.30
2019-03-31T18:44:50.230Z,4.10
2019-03-31T18:49:57.476Z,3.90
2019-03-31T18:55:23.374Z,3.70
2019-03-31T19:00:49.368Z,3.60
2019-03-31T19:06:15.519Z,3.50
2019-03-31T19:11:31.432Z,3.30
2019-03-31T19:17:13.371Z,3.20
2019-03-31T19:22:38.990Z,3.10
2019-03-31T19:28:11.076Z,2.90
2019-03-31T19:33:40.063Z,2.80
2019-03-31T19:39:01.760Z,2.70
2019-03-31T19:44:38.843Z,2.60
2019-03-31T19:50:08.652Z,2.30
2019-03-31T19:55:26.585Z,2.10
2019-03-31T20:00:55.878Z,2.00
2019-03-31T20:06:31.219Z,2.00
2019-03-31T20:11:55.722Z,2.00
2019-03-31T20:17:37.219Z,1.90
2019-03-31T20:23:06.611Z,1.80
2019-03-31T20:28:38.230Z,1.60
2019-03-31T20:34:07.384Z,1.50
2019-03-31T20:39:55.770Z,1.40
2019-03-31T20:44:51.177Z,1.40
2019-03-31T20:49:58.227Z,1.40
2019-03-31T20:55:16.087Z,1.20
2019-03-31T21:00:15.980Z,1.10
2019-03-31T21:05:23.318Z,1.10
2019-03-31T21:10:31.879Z,0.90
2019-03-31T21:15:38.972Z,0.80
2019-03-31T21:20:46.214Z,0.90
2019-03-31T21:25:53.415Z,0.90
2019-03-31T21:31:00.537Z,0.70
2019-03-31T21:36:07.740Z,0.50
2019-03-31T21:41:14.941Z,0.40
2019-03-31T21:46:22.137Z,0.40
2019-03-31T21:51:29.665Z,0.40
2019-03-31T21:56:37.629Z,0.30
2019-03-31T22:01:44.830Z,0.20
2019-03-31T22:06:51.909Z,0.10
2019-03-31T22:12:00.815Z,0.00
2019-03-31T22:17:07.915Z,0.00
2019-03-31T22:22:15.115Z,0.10
2019-03-31T22:27:23.241Z,0.00
2019-03-31T22:32:30.369Z,-0.30
2019-03-31T22:37:37.594Z,-0.30
2019-03-31T22:42:44.704Z,-0.30
2019-03-31T22:47:51.802Z,-0.30
2019-03-31T22:52:59.877Z,-0.30
2019-03-31T22:58:06.915Z,-0.30
2019-03-31T23:03:14.015Z,-0.40
2019-03-31T23:08:22.801Z,-0.40
2019-03-31T23:13:29.894Z,-0.50
2019-03-31T23:18:37.272Z,-0.50
2019-03-31T23:23:44.400Z,-0.60
2019-03-31T23:28:51.534Z,-0.80
2019-03-31T23:33:59.571Z,-0.80
2019-03-31T23:39:08.207Z,-0.80
2019-03-31T23:44:15.630Z,-0.90
2019-03-31T23:49:22.714Z,-0.90
2019-03-31T23:54:29.777Z,-1.00
2019-03-31T23:59:36.928Z,-1.10
